createdAt,value
2018-05-10T00:00:22.524Z,17.50
2018-05-10T00:02:50.050Z,17.50
2018-05-10T00:05:17.594Z,17.40
2018-05-10T00:07:45.933Z,17.20
2018-05-10T00:10:13.488Z,17.10
2018-05-10T00:12:41.132Z,17.20
2018-05-10T00:15:08.695Z,17.20
2018-05-10T00:17:36.210Z,17.10
2018-05-10T00:20:04.506Z,17.00
2018-05-10T00:22:32.070Z,16.90
2018-05-10T00:24:59.591Z,17.00
2018-05-10T00:27:27.897Z,16.90
2018-05-10T00:29:55.462Z,16.90
2018-05-10T00:32:22.979Z,16.80
2018-05-10T00:34:51.279Z,16.50
2018-05-10T00:37:18.840Z,16.50
2018-05-10T00:39:46.420Z,16.50
2018-05-10T00:42:13.941Z,16.40
2018-05-10T00:44:42.350Z,16.50
2018-05-10T00:47:09.879Z,16.40
2018-05-10T00:49:38.207Z,16.50
2018-05-10T00:52:05.766Z,16.50
2018-05-10T00:54:45.404Z,16.40
2018-05-10T00:57:13.047Z,16.30
2018-05-10T00:59:40.567Z,16.20
2018-05-10T01:02:08.882Z,16.30
2018-05-10T01:04:36.427Z,16.20
2018-05-10T01:07:03.956Z,16.20
2018-05-10T01:09:32.283Z,16.20
2018-05-10T01:11:59.937Z,16.10
2018-05-10T01:14:27.511Z,16.20
2018-05-10T01:16:55.035Z,16.20
2018-05-10T01:19:22.618Z,16.10
2018-05-10T01:21:50.142Z,16.10
2018-05-10T01:24:18.459Z,16.00
2018-05-10T01:26:46.117Z,16.00
2018-05-10T01:29:13.672Z,16.00
2018-05-10T01:31:41.220Z,15.90
2018-05-10T01:34:08.774Z,15.90
2018-05-10T01:36:36.296Z,15.90
2018-05-10T01:39:03.827Z,15.90
2018-05-10T01:41:31.477Z,15.80
2018-05-10T01:43:59.442Z,15.90
2018-05-10T01:46:26.973Z,15.80
2018-05-10T01:48:54.553Z,15.80
2018-05-10T01:51:22.104Z,15.70
2018-05-10T01:53:49.678Z,15.70
2018-05-10T01:56:17.230Z,15.70
2018-05-10T01:58:44.756Z,15.70
2018-05-10T02:01:13.042Z,15.50
2018-05-10T02:03:40.790Z,15.40
2018-05-10T02:06:09.087Z,15.20
2018-05-10T02:08:36.675Z,15.10
2018-05-10T02:11:04.240Z,15.10
2018-05-10T02:13:31.779Z,15.20
2018-05-10T02:15:59.320Z,15.10
2018-05-10T02:18:26.890Z,15.20
2018-05-10T02:20:54.468Z,15.20
2018-05-10T02:23:21.998Z,15.10
2018-05-10T02:25:49.556Z,15.00
2018-05-10T02:28:17.092Z,14.90
2018-05-10T02:30:45.395Z,14.80
2018-05-10T02:33:12.953Z,14.70
2018-05-10T02:35:40.507Z,14.80
2018-05-10T02:38:08.101Z,14.80
2018-05-10T02:40:35.957Z,14.90
2018-05-10T02:43:03.503Z,14.80
2018-05-10T02:45:31.068Z,14.60
2018-05-10T02:47:58.616Z,14.60
2018-05-10T02:50:26.179Z,14.90
2018-05-10T02:52:53.751Z,15.00
2018-05-10T02:55:21.403Z,15.00
2018-05-10T02:57:48.985Z,14.80
2018-05-10T03:00:16.506Z,14.60
2018-05-10T03:02:44.069Z,14.50
2018-05-10T03:05:11.639Z,14.40
2018-05-10T03:07:39.208Z,14.40
2018-05-10T03:10:06.776Z,14.40
2018-05-10T03:12:34.316Z,14.50
2018-05-10T03:15:01.880Z,14.50
2018-05-10T03:17:29.539Z,14.60
2018-05-10T03:19:57.104Z,14.80
2018-05-10T03:22:24.627Z,14.80
2018-05-10T03:24:52.741Z,14.80
2018-05-10T03:27:20.278Z,14.80
2018-05-10T03:29:47.814Z,14.70
2018-05-10T03:32:15.366Z,14.80
2018-05-10T03:34:43.671Z,14.70
2018-05-10T03:37:11.213Z,14.60
2018-05-10T03:39:38.777Z,14.70
2018-05-10T03:42:06.366Z,14.70
2018-05-10T03:44:33.919Z,14.60
2018-05-10T03:47:01.489Z,14.50
2018-05-10T03:49:29.015Z,14.50
2018-05-10T03:51:56.550Z,14.50
2018-05-10T03:54:24.854Z,14.40
2018-05-10T03:56:52.383Z,14.30
2018-05-10T03:59:20.691Z,14.20
2018-05-10T04:01:48.356Z,14.20
2018-05-10T04:04:28.921Z,14.30
2018-05-10T04:10:11.987Z,14.30
2018-05-10T04:12:39.548Z,14.40
2018-05-10T04:15:07.187Z,14.30
2018-05-10T04:17:34.724Z,14.20
2018-05-10T04:20:02.300Z,14.20
2018-05-10T04:22:29.867Z,14.30
2018-05-10T04:24:58.451Z,14.20
2018-05-10T04:27:26.098Z,14.40
2018-05-10T04:29:53.670Z,14.50
2018-05-10T04:32:21.207Z,14.20
2018-05-10T04:34:48.777Z,14.20
2018-05-10T04:37:16.346Z,14.20
2018-05-10T04:39:43.891Z,14.30
2018-05-10T04:42:11.531Z,14.40
2018-05-10T04:44:39.049Z,14.40
2018-05-10T04:47:06.696Z,14.40
2018-05-10T04:49:34.249Z,14.40
2018-05-10T04:52:01.761Z,14.50
2018-05-10T04:54:30.069Z,14.30
2018-05-10T04:56:57.638Z,14.30
2018-05-10T04:59:25.172Z,14.40
2018-05-10T05:01:52.724Z,14.40
2018-05-10T05:04:20.323Z,14.30
2018-05-10T05:06:47.874Z,14.30
2018-05-10T05:09:15.423Z,14.40
2018-05-10T05:11:43.089Z,14.50
2018-05-10T05:14:10.618Z,14.50
2018-05-10T05:16:38.158Z,14.50
2018-05-10T05:19:06.473Z,14.30
2018-05-10T05:21:34.088Z,14.20
2018-05-10T05:24:01.577Z,14.20
2018-05-10T05:26:29.133Z,14.20
2018-05-10T05:28:56.650Z,14.30
2018-05-10T05:31:24.264Z,14.20
2018-05-10T05:33:51.822Z,14.10
2018-05-10T05:36:19.380Z,14.20
2018-05-10T05:38:46.889Z,14.30
2018-05-10T05:41:15.301Z,14.40
2018-05-10T05:43:42.889Z,14.50
2018-05-10T05:46:10.429Z,14.70
2018-05-10T05:48:37.980Z,14.60
2018-05-10T05:51:05.518Z,14.60
2018-05-10T05:53:33.064Z,14.60
2018-05-10T05:56:00.637Z,14.80
2018-05-10T05:58:28.936Z,14.70
2018-05-10T06:00:56.484Z,14.60
2018-05-10T06:03:24.070Z,14.60
2018-05-10T06:05:51.595Z,14.50
2018-05-10T06:08:19.907Z,14.60
2018-05-10T06:10:47.872Z,14.50
2018-05-10T06:13:15.440Z,14.70
2018-05-10T06:15:42.992Z,14.70
2018-05-10T06:18:10.545Z,14.70
2018-05-10T06:20:38.121Z,14.60
2018-05-10T06:23:05.636Z,14.50
2018-05-10T06:25:34.056Z,14.50
2018-05-10T06:28:01.610Z,14.50
2018-05-10T06:30:29.125Z,14.60
2018-05-10T06:32:57.432Z,14.70
2018-05-10T06:35:24.954Z,14.70
2018-05-10T06:37:53.368Z,14.80
2018-05-10T06:40:20.930Z,14.80
2018-05-10T06:42:48.464Z,14.80
2018-05-10T06:45:16.004Z,14.80
2018-05-10T06:47:44.329Z,14.90
2018-05-10T06:50:11.861Z,14.80
2018-05-10T06:52:39.414Z,14.80
2018-05-10T06:55:07.730Z,14.80
2018-05-10T06:57:35.264Z,14.80
2018-05-10T07:00:02.785Z,14.80
2018-05-10T07:02:30.393Z,15.00
2018-05-10T07:04:57.918Z,15.20
2018-05-10T07:07:26.212Z,15.70
2018-05-10T07:09:53.941Z,15.60
2018-05-10T07:12:21.309Z,15.70
2018-05-10T07:14:49.606Z,15.60
2018-05-10T07:17:17.175Z,15.50
2018-05-10T07:19:44.739Z,15.60
2018-05-10T07:22:12.263Z,15.50
2018-05-10T07:24:40.594Z,15.30
2018-05-10T07:27:08.129Z,15.30
2018-05-10T07:29:35.668Z,15.70
2018-05-10T07:32:03.261Z,15.50
2018-05-10T07:34:30.860Z,15.30
2018-05-10T07:36:58.465Z,15.30
2018-05-10T07:39:26.123Z,15.40
2018-05-10T07:41:54.595Z,15.40
2018-05-10T07:44:22.083Z,15.80
2018-05-10T07:46:49.637Z,15.50
2018-05-10T07:49:17.156Z,15.70
2018-05-10T07:51:45.480Z,15.90
2018-05-10T07:54:13.039Z,15.80
2018-05-10T07:56:40.576Z,15.70
2018-05-10T07:59:08.131Z,15.50
2018-05-10T08:01:35.679Z,15.30
2018-05-10T08:04:03.248Z,14.90
2018-05-10T08:06:30.780Z,14.90
2018-05-10T08:08:59.171Z,14.50
2018-05-10T08:11:26.742Z,14.40
2018-05-10T08:13:54.311Z,14.80
2018-05-10T08:16:21.859Z,14.80
2018-05-10T08:18:49.383Z,14.90
2018-05-10T08:21:17.667Z,15.20
2018-05-10T08:23:48.746Z,15.10
2018-05-10T08:26:16.308Z,15.00
2018-05-10T08:28:43.827Z,15.20
2018-05-10T08:31:12.227Z,15.30
2018-05-10T08:33:39.750Z,15.20
2018-05-10T08:36:08.039Z,15.30
2018-05-10T08:38:36.371Z,15.40
2018-05-10T08:41:03.898Z,15.40
2018-05-10T08:43:31.415Z,16.00
2018-05-10T08:45:59.718Z,15.80
2018-05-10T08:48:27.236Z,15.80
2018-05-10T08:50:54.859Z,16.00
2018-05-10T08:53:22.401Z,16.40
2018-05-10T08:55:50.068Z,16.30
2018-05-10T08:58:17.607Z,16.20
2018-05-10T09:00:45.160Z,16.30
2018-05-10T09:03:13.434Z,15.90
2018-05-10T09:05:41.737Z,16.00
2018-05-10T09:08:09.307Z,15.90
2018-05-10T09:10:36.867Z,16.00
2018-05-10T09:13:04.398Z,15.90
2018-05-10T09:15:31.951Z,16.20
2018-05-10T09:17:59.475Z,16.30
2018-05-10T09:20:27.108Z,16.50
2018-05-10T09:22:54.753Z,16.30
2018-05-10T09:25:22.288Z,16.50
2018-05-10T09:27:49.810Z,16.80
2018-05-10T09:30:18.885Z,17.10
2018-05-10T09:32:46.405Z,17.10
2018-05-10T09:35:13.926Z,16.40
2018-05-10T09:37:41.491Z,16.30
2018-05-10T09:40:09.779Z,16.70
2018-05-10T09:42:38.063Z,16.70
2018-05-10T09:45:05.908Z,16.70
2018-05-10T09:47:34.221Z,17.80
2018-05-10T09:50:01.910Z,17.70
2018-05-10T09:52:29.567Z,18.00
2018-05-10T09:54:57.102Z,17.70
2018-05-10T09:57:24.627Z,17.50
2018-05-10T09:59:53.157Z,17.70
2018-05-10T10:02:20.714Z,17.60
2018-05-10T10:04:48.276Z,17.50
2018-05-10T10:07:15.929Z,17.50
2018-05-10T10:09:43.451Z,17.70
2018-05-10T10:12:11.748Z,17.40
2018-05-10T10:14:39.286Z,17.30
2018-05-10T10:17:07.593Z,17.40
2018-05-10T10:19:35.105Z,17.30
2018-05-10T10:22:02.650Z,17.20
2018-05-10T10:24:30.286Z,17.00
2018-05-10T10:26:57.857Z,16.80
2018-05-10T10:29:25.464Z,16.60
2018-05-10T10:31:52.955Z,16.30
2018-05-10T10:34:20.536Z,16.40
2018-05-10T10:36:48.162Z,16.50
2018-05-10T10:39:15.729Z,16.90
2018-05-10T10:41:43.249Z,17.20
2018-05-10T10:44:11.582Z,17.40
2018-05-10T10:46:39.095Z,17.30
2018-05-10T10:49:07.395Z,17.10
2018-05-10T10:51:34.962Z,17.10
2018-05-10T10:54:02.561Z,16.40
2018-05-10T10:56:30.170Z,16.10
2018-05-10T10:58:57.772Z,15.90
2018-05-10T11:01:27.132Z,15.70
2018-05-10T11:03:54.695Z,15.50
2018-05-10T11:06:22.351Z,15.50
2018-05-10T11:08:49.952Z,15.50
2018-05-10T11:11:17.475Z,15.50
2018-05-10T11:13:45.022Z,15.40
2018-05-10T11:16:12.617Z,15.10
2018-05-10T11:18:40.133Z,15.10
2018-05-10T11:21:07.683Z,15.10
2018-05-10T11:23:36.011Z,15.10
2018-05-10T11:26:03.669Z,15.00
2018-05-10T11:28:31.336Z,15.00
2018-05-10T11:30:58.969Z,14.90
2018-05-10T11:33:26.533Z,15.00
2018-05-10T11:35:54.085Z,14.90
2018-05-10T11:38:21.621Z,14.90
2018-05-10T11:40:49.174Z,14.80
2018-05-10T11:43:17.492Z,14.90
2018-05-10T11:45:45.046Z,14.80
2018-05-10T11:48:12.610Z,14.90
2018-05-10T11:50:40.164Z,14.90
2018-05-10T11:53:07.694Z,14.80
2018-05-10T11:55:35.319Z,14.80
2018-05-10T11:58:04.383Z,14.80
2018-05-10T12:00:31.907Z,14.80
2018-05-10T12:02:59.431Z,14.70
2018-05-10T12:05:26.992Z,14.60
2018-05-10T12:07:54.520Z,14.50
2018-05-10T12:10:22.042Z,14.50
2018-05-10T12:12:49.603Z,14.30
2018-05-10T12:15:17.136Z,14.20
2018-05-10T12:17:45.415Z,14.30
2018-05-10T12:20:13.852Z,14.40
2018-05-10T12:22:41.528Z,14.40
2018-05-10T12:25:09.057Z,14.50
2018-05-10T12:27:36.649Z,14.40
2018-05-10T12:30:04.187Z,14.30
2018-05-10T12:32:31.732Z,14.10
2018-05-10T12:34:59.294Z,14.20
2018-05-10T12:37:26.827Z,14.40
2018-05-10T12:39:54.412Z,14.50
2018-05-10T12:42:21.973Z,14.40
2018-05-10T12:44:49.515Z,14.40
2018-05-10T12:47:17.097Z,14.60
2018-05-10T12:49:44.733Z,14.90
2018-05-10T12:52:12.285Z,14.70
2018-05-10T12:54:39.819Z,14.60
2018-05-10T12:57:08.141Z,14.60
2018-05-10T12:59:35.654Z,14.60
2018-05-10T13:02:03.966Z,15.00
2018-05-10T13:04:31.526Z,15.00
2018-05-10T13:06:59.098Z,15.30
2018-05-10T13:09:26.660Z,15.50
2018-05-10T13:11:54.312Z,15.40
2018-05-10T13:14:21.842Z,15.50
2018-05-10T13:16:49.443Z,15.70
2018-05-10T13:19:17.005Z,15.60
2018-05-10T13:21:44.670Z,15.80
2018-05-10T13:24:12.308Z,16.00
2018-05-10T13:26:39.890Z,16.00
2018-05-10T13:29:07.517Z,16.20
2018-05-10T13:31:35.041Z,16.20
2018-05-10T13:34:03.363Z,17.00
2018-05-10T13:36:30.941Z,16.90
2018-05-10T13:38:58.452Z,16.90
2018-05-10T13:41:26.043Z,16.90
2018-05-10T13:43:53.588Z,16.90
2018-05-10T13:46:21.121Z,16.80
2018-05-10T13:48:49.546Z,16.50
2018-05-10T13:51:17.105Z,16.40
2018-05-10T13:53:44.658Z,16.30
2018-05-10T13:56:12.301Z,16.50
2018-05-10T13:58:39.834Z,16.10
2018-05-10T14:01:08.136Z,16.10
2018-05-10T14:03:35.712Z,16.00
2018-05-10T14:06:03.257Z,16.20
2018-05-10T14:08:30.834Z,16.20
2018-05-10T14:10:58.403Z,16.10
2018-05-10T14:13:25.952Z,16.00
2018-05-10T14:15:53.469Z,16.10
2018-05-10T14:18:21.016Z,16.10
2018-05-10T14:20:49.345Z,16.00
2018-05-10T14:23:16.903Z,16.00
2018-05-10T14:25:44.555Z,16.10
2018-05-10T14:28:12.083Z,16.30
2018-05-10T14:30:39.628Z,16.40
2018-05-10T14:33:07.953Z,16.40
2018-05-10T14:35:35.485Z,16.30
2018-05-10T14:38:03.035Z,16.40
2018-05-10T14:40:30.606Z,16.60
2018-05-10T14:42:58.125Z,16.30
2018-05-10T14:45:25.658Z,16.20
2018-05-10T14:47:53.206Z,16.40
2018-05-10T14:50:20.753Z,16.50
2018-05-10T14:52:48.281Z,16.50
2018-05-10T14:55:15.858Z,16.30
2018-05-10T14:57:43.370Z,16.50
2018-05-10T15:00:10.904Z,16.70
2018-05-10T15:02:38.496Z,16.90
2018-05-10T15:05:06.777Z,16.50
2018-05-10T15:07:35.072Z,16.30
2018-05-10T15:10:02.619Z,16.20
2018-05-10T15:12:30.907Z,16.10
2018-05-10T15:14:58.502Z,16.00
2018-05-10T15:17:26.057Z,16.00
2018-05-10T15:19:53.664Z,16.10
2018-05-10T15:22:21.142Z,16.10
2018-05-10T15:24:48.699Z,16.10
2018-05-10T15:27:16.248Z,16.10
2018-05-10T15:29:44.596Z,16.20
2018-05-10T15:32:12.163Z,16.10
2018-05-10T15:34:39.771Z,16.20
2018-05-10T15:37:07.300Z,16.40
2018-05-10T15:39:35.635Z,16.80
2018-05-10T15:42:03.164Z,16.70
2018-05-10T15:44:30.734Z,17.00
2018-05-10T15:46:58.282Z,16.80
2018-05-10T15:49:25.834Z,16.70
2018-05-10T15:51:53.418Z,16.70
2018-05-10T15:54:20.937Z,17.20
2018-05-10T15:56:48.529Z,17.30
2018-05-10T15:59:16.077Z,17.10
2018-05-10T16:01:43.639Z,17.80
2018-05-10T16:04:11.212Z,18.00
2018-05-10T16:06:38.771Z,17.60
2018-05-10T16:09:06.355Z,17.30
2018-05-10T16:11:34.825Z,16.90
2018-05-10T16:14:02.566Z,16.90
2018-05-10T16:16:30.130Z,16.30
2018-05-10T16:18:57.652Z,16.20
2018-05-10T16:21:25.963Z,16.00
2018-05-10T16:23:53.525Z,15.90
2018-05-10T16:26:21.144Z,15.80
2018-05-10T16:28:48.636Z,15.50
2018-05-10T16:31:16.193Z,15.50
2018-05-10T16:33:43.757Z,15.50
2018-05-10T16:36:11.274Z,15.30
2018-05-10T16:38:39.682Z,15.10
2018-05-10T16:41:07.223Z,15.10
2018-05-10T16:43:34.759Z,14.80
2018-05-10T16:46:03.091Z,14.10
2018-05-10T16:48:30.609Z,14.00
2018-05-10T16:50:58.195Z,13.90
2018-05-10T16:53:25.803Z,13.80
2018-05-10T16:55:53.298Z,13.70
2018-05-10T16:58:20.885Z,13.50
2018-05-10T17:00:48.468Z,13.50
2018-05-10T17:03:16.075Z,13.50
2018-05-10T17:05:43.594Z,13.50
2018-05-10T17:08:11.141Z,13.50
2018-05-10T17:10:38.748Z,13.50
2018-05-10T17:13:07.800Z,13.60
2018-05-10T17:15:35.531Z,13.50
2018-05-10T17:18:03.117Z,13.60
2018-05-10T17:20:30.909Z,13.60
2018-05-10T17:22:58.781Z,13.60
2018-05-10T17:25:27.087Z,13.60
2018-05-10T17:27:54.670Z,13.60
2018-05-10T17:30:22.337Z,13.60
2018-05-10T17:32:49.860Z,13.50
2018-05-10T17:35:17.430Z,13.60
2018-05-10T17:37:44.975Z,13.50
2018-05-10T17:40:12.519Z,13.60
2018-05-10T17:42:40.112Z,13.60
2018-05-10T17:45:07.708Z,13.50
2018-05-10T17:47:35.574Z,13.50
2018-05-10T17:50:03.130Z,13.50
2018-05-10T17:52:31.462Z,13.50
2018-05-10T17:54:59.050Z,13.50
2018-05-10T17:57:26.666Z,13.50
2018-05-10T17:59:54.251Z,13.50
2018-05-10T18:02:21.773Z,13.50
2018-05-10T18:04:49.305Z,13.60
2018-05-10T18:07:17.069Z,14.00
2018-05-10T18:09:44.593Z,14.60
2018-05-10T18:12:12.137Z,15.00
2018-05-10T18:14:39.677Z,14.70
2018-05-10T18:17:07.219Z,14.90
2018-05-10T18:19:35.516Z,14.90
2018-05-10T18:22:03.078Z,14.80
2018-05-10T18:24:30.596Z,14.50
2018-05-10T18:26:58.122Z,14.30
2018-05-10T18:29:25.664Z,14.10
2018-05-10T18:31:53.194Z,13.80
2018-05-10T18:34:20.741Z,13.90
2018-05-10T18:36:49.057Z,13.80
2018-05-10T18:39:17.227Z,13.70
2018-05-10T18:41:44.762Z,13.60
2018-05-10T18:44:13.165Z,13.50
2018-05-10T18:46:40.691Z,13.40
2018-05-10T18:49:08.995Z,13.30
2018-05-10T18:51:36.554Z,13.20
2018-05-10T18:54:04.094Z,13.20
2018-05-10T18:56:31.613Z,13.20
2018-05-10T18:58:59.229Z,13.00
2018-05-10T19:01:26.777Z,12.90
2018-05-10T19:03:54.425Z,12.90
2018-05-10T19:06:22.756Z,12.80
2018-05-10T19:08:50.306Z,12.70
2018-05-10T19:11:17.821Z,12.80
2018-05-10T19:13:46.204Z,12.60
2018-05-10T19:16:13.787Z,12.60
2018-05-10T19:18:41.346Z,12.50
2018-05-10T19:21:08.882Z,12.50
2018-05-10T19:23:36.389Z,12.40
2018-05-10T19:26:03.918Z,12.20
2018-05-10T19:28:31.463Z,12.10
2018-05-10T19:30:59.001Z,12.00
2018-05-10T19:33:27.293Z,11.80
2018-05-10T19:35:54.842Z,11.70
2018-05-10T19:38:23.145Z,11.60
2018-05-10T19:40:50.722Z,11.50
2018-05-10T19:43:18.396Z,11.50
2018-05-10T19:45:45.931Z,11.50
2018-05-10T19:48:13.462Z,11.40
2018-05-10T19:50:41.014Z,11.30
2018-05-10T19:53:08.546Z,11.20
2018-05-10T19:55:37.571Z,11.10
2018-05-10T19:58:05.130Z,11.20
2018-05-10T20:00:32.656Z,11.30
2018-05-10T20:03:00.937Z,11.40
2018-05-10T20:05:28.549Z,11.40
2018-05-10T20:07:56.096Z,11.50
2018-05-10T20:10:23.657Z,11.40
2018-05-10T20:12:51.217Z,11.50
2018-05-10T20:15:18.738Z,11.60
2018-05-10T20:17:47.027Z,11.50
2018-05-10T20:20:17.063Z,11.50
2018-05-10T20:22:44.596Z,11.40
2018-05-10T20:25:12.892Z,11.40
2018-05-10T20:27:40.458Z,11.30
2018-05-10T20:30:08.190Z,11.30
2018-05-10T20:32:36.861Z,11.20
2018-05-10T20:35:04.412Z,11.10
2018-05-10T20:37:31.966Z,11.10
2018-05-10T20:39:59.487Z,11.10
2018-05-10T20:42:27.047Z,11.00
2018-05-10T20:44:54.590Z,11.00
2018-05-10T20:47:22.102Z,11.00
2018-05-10T20:49:49.682Z,10.90
2018-05-10T20:52:17.966Z,10.80
2018-05-10T20:54:46.280Z,10.80
2018-05-10T20:57:13.836Z,10.70
2018-05-10T20:59:41.368Z,10.80
2018-05-10T21:02:09.113Z,10.70
2018-05-10T21:04:37.444Z,10.60
2018-05-10T21:07:05.068Z,10.50
2018-05-10T21:09:32.577Z,10.50
2018-05-10T21:12:00.154Z,10.50
2018-05-10T21:14:27.781Z,10.50
2018-05-10T21:16:55.337Z,10.40
2018-05-10T21:19:24.143Z,10.40
2018-05-10T21:21:51.660Z,10.30
2018-05-10T21:24:19.182Z,10.30
2018-05-10T21:26:47.517Z,10.30
2018-05-10T21:29:15.042Z,10.20
2018-05-10T21:31:42.561Z,10.20
2018-05-10T21:34:11.619Z,10.00
2018-05-10T21:36:39.659Z,10.00
2018-05-10T21:39:07.245Z,10.20
2018-05-10T21:41:34.818Z,10.10
2018-05-10T21:44:02.343Z,10.20
2018-05-10T21:46:29.872Z,10.10
2018-05-10T21:48:58.232Z,9.90
2018-05-10T21:51:25.750Z,9.80
2018-05-10T21:53:53.271Z,9.80
2018-05-10T21:56:21.573Z,9.80
2018-05-10T21:58:49.102Z,9.70
2018-05-10T22:01:17.378Z,9.70
2018-05-10T22:03:45.701Z,9.60
2018-05-10T22:06:13.221Z,9.60
2018-05-10T22:08:41.515Z,9.70
2018-05-10T22:11:09.102Z,9.70
2018-05-10T22:13:36.633Z,9.60
2018-05-10T22:16:04.203Z,9.50
2018-05-10T22:18:31.766Z,9.50
2018-05-10T22:20:59.303Z,9.50
2018-05-10T22:23:27.114Z,9.60
2018-05-10T22:25:55.761Z,9.50
2018-05-10T22:28:23.430Z,9.50
2018-05-10T22:30:50.974Z,9.50
2018-05-10T22:33:18.531Z,9.50
2018-05-10T22:35:46.058Z,9.40
2018-05-10T22:38:14.355Z,9.30
2018-05-10T22:40:42.767Z,9.20
2018-05-10T22:43:10.300Z,9.20
2018-05-10T22:45:37.841Z,9.10
2018-05-10T22:48:06.237Z,9.00
2018-05-10T22:50:34.531Z,8.90
2018-05-10T22:53:02.111Z,8.90
2018-05-10T22:55:29.658Z,8.90
2018-05-10T22:57:57.180Z,8.80
2018-05-10T23:00:25.457Z,8.60
2018-05-10T23:02:53.781Z,8.50
2018-05-10T23:05:21.323Z,8.50
2018-05-10T23:07:48.850Z,8.50
2018-05-10T23:10:17.183Z,8.30
2018-05-10T23:12:44.707Z,8.20
2018-05-10T23:15:12.264Z,8.20
2018-05-10T23:17:39.826Z,8.10
2018-05-10T23:20:07.363Z,8.00
2018-05-10T23:22:34.878Z,7.90
2018-05-10T23:25:02.437Z,7.90
2018-05-10T23:27:29.982Z,7.90
2018-05-10T23:29:57.493Z,7.90
2018-05-10T23:32:25.903Z,8.00
2018-05-10T23:34:53.417Z,7.90
2018-05-10T23:37:21.714Z,7.90
2018-05-10T23:39:49.253Z,7.90
2018-05-10T23:42:17.533Z,7.80
2018-05-10T23:44:45.831Z,7.80
2018-05-10T23:47:13.400Z,7.70
2018-05-10T23:49:40.910Z,7.70
2018-05-10T23:52:08.417Z,7.70
2018-05-10T23:54:35.997Z,7.80
2018-05-10T23:57:03.517Z,7.70
2018-05-10T23:59:31.089Z,7.80
